Time;durP1;ratioP1;P1;durP2;ratioP2;P2;SDS_P1;SDS_P2;PMS_P1;PMS_P2;Temp;Humidity;BMP_temperature;BMP_pressure;BME280_temperature;BME280_humidity;BME280_pressure;Samples;Min_cycle;Max_cycle;Signal;HPM_P1;HPM_P2
2023/09/26 00:00:43;;;;;;;1999.90;999.90;;;;;;;12.51;100.00;102148.09;10417420;28;20405;-77
2023/09/26 00:05:46;;;;;;;1999.90;999.90;;;;;;;12.36;100.00;102146.13;10418109;28;20053;-77
2023/09/26 00:10:49;;;;;;;1999.90;999.90;;;;;;;12.39;100.00;102148.59;10417057;28;20136;-77
2023/09/26 00:15:51;;;;;;;1999.90;999.90;;;;;;;12.25;100.00;102150.06;10400249;28;20076;-77
2023/09/26 00:20:53;;;;;;;1999.90;999.90;;;;;;;12.14;100.00;102138.28;10417263;28;20045;-77
2023/09/26 00:25:56;;;;;;;1999.90;999.90;;;;;;;12.02;100.00;102147.53;10399772;28;20050;-77
2023/09/26 00:31:04;;;;;;;1999.90;999.90;;;;;;;12.09;100.00;102149.00;10416794;28;20049;-77
2023/09/26 00:36:10;;;;;;;1999.90;999.90;;;;;;;12.05;100.00;102145.66;10416327;28;20453;-77
2023/09/26 00:41:13;;;;;;;1999.90;999.90;;;;;;;12.06;100.00;102141.25;10399223;28;20406;-77
2023/09/26 00:46:15;;;;;;;1999.90;999.90;;;;;;;12.06;100.00;102136.00;10398867;28;20053;-77
2023/09/26 00:51:18;;;;;;;1999.90;999.90;;;;;;;11.95;100.00;102138.22;10398726;28;20041;-77
2023/09/26 00:56:20;;;;;;;1999.90;999.90;;;;;;;12.04;100.00;102124.72;10416175;28;20125;-77
2023/09/26 01:01:24;;;;;;;1999.90;999.90;;;;;;;11.98;100.00;102123.19;10415931;28;20053;-77
2023/09/26 01:06:27;;;;;;;1999.90;999.90;;;;;;;11.81;100.00;102139.63;10396993;28;20553;-77
2023/09/26 01:11:30;;;;;;;1999.90;999.90;;;;;;;11.96;100.00;102138.16;10415430;28;20092;-77
2023/09/26 01:16:32;;;;;;;1999.90;999.90;;;;;;;11.96;100.00;102132.91;10398359;28;20132;-77
2023/09/26 01:21:35;;;;;;;1999.90;999.90;;;;;;;12.01;100.00;102132.72;10397434;28;20056;-77
2023/09/26 01:26:37;;;;;;;1999.90;999.90;;;;;;;11.97;100.00;102118.88;10415325;28;20129;-77
2023/09/26 01:31:40;;;;;;;1999.90;999.90;;;;;;;11.93;100.00;102104.16;10397818;28;20050;-77
2023/09/26 01:36:42;;;;;;;1999.90;999.90;;;;;;;12.16;100.00;102105.81;10414974;28;20073;-77
2023/09/26 01:41:46;;;;;;;1999.90;999.90;;;;;;;12.06;100.00;102100.09;10397359;28;20045;-77
2023/09/26 01:46:48;;;;;;;1999.90;999.90;;;;;;;12.04;100.00;102101.09;10415182;28;20054;-77
2023/09/26 01:51:51;;;;;;;1999.90;999.90;;;;;;;12.00;100.00;102103.00;10415374;28;20076;-77
2023/09/26 01:56:53;;;;;;;1999.90;999.90;;;;;;;11.99;100.00;102109.16;10414944;28;20114;-77
2023/09/26 02:01:55;;;;;;;1999.90;999.90;;;;;;;12.12;100.00;102111.25;10414775;28;20046;-77
2023/09/26 02:06:58;;;;;;;1999.90;999.90;;;;;;;12.14;100.00;102104.16;10414699;28;20050;-77
2023/09/26 02:12:03;;;;;;;1999.90;999.90;;;;;;;12.25;100.00;102097.56;10414167;28;20077;-77
2023/09/26 02:17:06;;;;;;;1999.90;999.90;;;;;;;12.31;100.00;102091.19;10414319;28;20049;-77
2023/09/26 02:22:08;;;;;;;1999.90;999.90;;;;;;;12.35;100.00;102084.84;10421971;28;20111;-77
2023/09/26 02:27:11;;;;;;;1999.90;999.90;;;;;;;12.33;100.00;102089.31;10404474;28;20060;-77
2023/09/26 02:32:13;;;;;;;1999.90;999.90;;;;;;;12.21;100.00;102097.75;10420878;28;20397;-77
2023/09/26 02:37:15;;;;;;;1999.90;999.90;;;;;;;12.30;100.00;102105.22;10421365;28;20053;-77
2023/09/26 02:42:18;;;;;;;1999.90;999.90;;;;;;;12.38;100.00;102094.38;10421138;28;20045;-78
2023/09/26 02:47:20;;;;;;;1999.90;999.90;;;;;;;12.45;100.00;102090.56;10420911;28;20136;-78
2023/09/26 02:52:24;;;;;;;1999.90;999.90;;;;;;;12.31;100.00;102087.72;10420048;28;20045;-77
2023/09/26 02:57:26;;;;;;;1999.90;999.90;;;;;;;12.26;100.00;102090.53;10403273;28;20053;-77
2023/09/26 03:02:29;;;;;;;1999.90;999.90;;;;;;;12.28;100.00;102075.56;10402900;28;20049;-77
2023/09/26 03:07:31;;;;;;;1999.90;999.90;;;;;;;12.14;100.00;102081.41;10419526;28;20497;-77
2023/09/26 03:12:33;;;;;;;1999.90;999.90;;;;;;;11.96;100.00;102074.34;10419631;28;20058;-77
2023/09/26 03:17:36;;;;;;;1999.90;999.90;;;;;;;11.97;100.00;102057.66;10419176;28;20413;-77
2023/09/26 03:22:38;;;;;;;1999.90;999.90;;;;;;;11.86;100.00;102055.47;10402066;28;20046;-77
2023/09/26 03:27:41;;;;;;;1999.90;999.90;;;;;;;11.75;100.00;102066.44;10419364;28;20057;-77
2023/09/26 03:32:44;;;;;;;1999.90;999.90;;;;;;;11.87;100.00;102058.03;10400685;28;20049;-77
2023/09/26 03:37:46;;;;;;;1999.90;999.90;;;;;;;11.96;100.00;102054.19;10419047;28;20056;-77
2023/09/26 03:42:48;;;;;;;1999.90;999.90;;;;;;;11.93;100.00;102056.94;10418564;28;20042;-77
2023/09/26 03:47:51;;;;;;;1999.90;999.90;;;;;;;11.91;100.00;102053.53;10418869;28;20060;-77
2023/09/26 03:52:54;;;;;;;1999.90;999.90;;;;;;;11.76;100.00;102059.41;10418381;28;20066;-77
2023/09/26 03:57:57;;;;;;;1999.90;999.90;;;;;;;11.70;100.00;102058.75;10418246;28;20099;-77
2023/09/26 04:03:01;;;;;;;1999.90;999.90;;;;;;;11.50;100.00;102056.94;10384116;28;20073;-77
2023/09/26 04:08:04;;;;;;;1999.90;999.90;;;;;;;11.58;100.00;102055.78;10400389;28;20077;-77
2023/09/26 04:13:06;;;;;;;1999.90;999.90;;;;;;;11.88;100.00;102061.50;10416876;28;20046;-77
2023/09/26 04:18:08;;;;;;;1999.90;999.90;;;;;;;11.54;100.00;102049.81;10400084;28;20103;-77
2023/09/26 04:23:11;;;;;;;1999.90;999.90;;;;;;;11.60;100.00;102052.19;10399413;28;20050;-77
2023/09/26 04:28:13;;;;;;;1999.90;999.90;;;;;;;11.46;100.00;102057.97;10416376;28;20409;-78
2023/09/26 04:33:16;;;;;;;1999.90;999.90;;;;;;;11.58;100.00;102061.00;10416779;28;20080;-77
2023/09/26 04:38:20;;;;;;;1999.90;999.90;;;;;;;11.60;100.00;102052.19;10398502;28;20049;-77
2023/09/26 04:43:23;;;;;;;1999.90;999.90;;;;;;;11.40;100.00;102055.63;10416240;28;20425;-78
2023/09/26 04:48:25;;;;;;;1999.90;999.90;;;;;;;11.50;100.00;102051.69;10398202;28;20486;-78
2023/09/26 04:53:28;;;;;;;1999.90;999.90;;;;;;;11.52;100.00;102047.25;10416075;28;20045;-77
2023/09/26 04:58:32;;;;;;;1999.90;999.90;;;;;;;11.44;100.00;102044.06;10416353;28;20052;-78
2023/09/26 05:03:34;;;;;;;1999.90;999.90;;;;;;;11.40;100.00;102045.13;10398630;28;20081;-78
2023/09/26 05:08:37;;;;;;;1999.90;999.90;;;;;;;11.39;100.00;102038.16;10415822;28;20053;-78
2023/09/26 05:13:41;;;;;;;1999.90;999.90;;;;;;;11.23;100.00;102045.81;10381076;28;20403;-78
2023/09/26 05:18:43;;;;;;;1999.90;999.90;;;;;;;11.20;100.00;102045.94;10381449;28;20053;-77
2023/09/26 05:23:45;;;;;;;1999.90;999.90;;;;;;;11.42;100.00;102050.31;10398003;28;20056;-79
2023/09/26 05:28:48;;;;;;;1999.90;999.90;;;;;;;11.45;100.00;102045.78;10415409;28;20056;-78
2023/09/26 05:33:52;;;;;;;1999.90;999.90;;;;;;;11.58;100.00;102046.13;10415204;28;20046;-78
2023/09/26 05:38:55;;;;;;;1999.90;999.90;;;;;;;11.36;100.00;102034.81;10397562;28;20058;-78
2023/09/26 05:43:57;;;;;;;1999.90;999.90;;;;;;;11.46;100.00;102042.22;10414406;28;20391;-78
2023/09/26 05:48:59;;;;;;;1999.90;999.90;;;;;;;11.61;100.00;102034.66;10397638;28;20056;-78
2023/09/26 05:54:02;;;;;;;1999.90;999.90;;;;;;;11.62;100.00;102042.47;10384821;28;20050;-77
2023/09/26 05:59:10;;;;;;;1999.90;999.90;;;;;;;11.74;100.00;102045.50;10422243;28;20467;-78
2023/09/26 06:04:12;;;;;;;1999.90;999.90;;;;;;;12.13;100.00;102032.44;10422564;28;20041;-77
2023/09/26 06:09:15;;;;;;;1999.90;999.90;;;;;;;12.19;100.00;102026.94;10421611;28;20096;-78
2023/09/26 06:14:17;;;;;;;1999.90;999.90;;;;;;;12.30;100.00;102028.22;10405120;28;20050;-77
2023/09/26 06:19:19;;;;;;;1999.90;999.90;;;;;;;12.27;100.00;102051.06;10421540;28;20055;-77
2023/09/26 06:24:22;;;;;;;1999.90;999.90;;;;;;;12.32;100.00;102035.09;10421871;28;20452;-78
2023/09/26 06:29:24;;;;;;;1999.90;999.90;;;;;;;12.44;100.00;102038.97;10421669;28;20045;-78
2023/09/26 06:34:27;;;;;;;1999.90;999.90;;;;;;;12.44;100.00;102038.97;10421326;28;20521;-70
2023/09/26 06:39:30;;;;;;;1999.90;999.90;;;;;;;12.77;100.00;102033.91;10420656;28;20401;-71
2023/09/26 06:44:32;;;;;;;1999.90;999.90;;;;;;;12.72;100.00;102035.06;10403964;28;20099;-75
2023/09/26 06:49:35;;;;;;;1999.90;999.90;;;;;;;12.75;100.00;102038.38;10420864;28;20049;-74
2023/09/26 06:54:37;;;;;;;1999.90;999.90;;;;;;;12.97;100.00;102032.97;10403041;28;20050;-73
2023/09/26 06:59:39;;;;;;;1999.90;999.90;;;;;;;13.24;100.00;102018.56;10402990;28;20046;-73
2023/09/26 07:04:42;;;;;;;1999.90;999.90;;;;;;;13.30;100.00;102018.25;10400891;28;20486;-73
2023/09/26 07:09:44;;;;;;;1999.90;999.90;;;;;;;13.46;100.00;102016.59;10419949;28;20136;-73
2023/09/26 07:14:47;;;;;;;1999.90;999.90;;;;;;;13.73;100.00;102014.34;10402225;28;20103;-73
2023/09/26 07:19:50;;;;;;;1999.90;999.90;;;;;;;13.65;100.00;102003.38;10402226;28;20053;-73
2023/09/26 07:24:52;;;;;;;1999.90;999.90;;;;;;;14.08;100.00;101995.00;10419516;28;20049;-73
2023/09/26 07:29:55;;;;;;;1999.90;999.90;;;;;;;14.14;100.00;101992.06;10419346;28;20132;-74
2023/09/26 07:34:57;;;;;;;1999.90;999.90;;;;;;;14.47;100.00;101997.28;10419017;28;20052;-73
2023/09/26 07:40:01;;;;;;;1999.90;999.90;;;;;;;14.37;100.00;102005.75;10401368;28;20129;-73
2023/09/26 07:45:05;;;;;;;1999.90;999.90;;;;;;;14.54;100.00;102025.91;10385796;28;20045;-73
2023/09/26 07:50:07;;;;;;;1999.90;999.90;;;;;;;14.90;100.00;102016.97;10400947;28;20128;-73
2023/09/26 07:55:11;;;;;;;1999.90;999.90;;;;;;;14.91;100.00;102016.00;10400118;28;20434;-73
2023/09/26 08:00:14;;;;;;;1999.90;999.90;;;;;;;15.19;100.00;102012.66;10418531;28;20179;-73
2023/09/26 08:05:17;;;;;;;1999.90;999.90;;;;;;;15.84;100.00;102008.91;10417316;28;20045;-73
2023/09/26 08:10:19;;;;;;;1999.90;999.90;;;;;;;15.73;100.00;102007.69;10400142;28;20119;-73
2023/09/26 08:15:22;;;;;;;1999.90;999.90;;;;;;;15.91;100.00;102004.94;10417370;28;20076;-72
2023/09/26 08:20:24;;;;;;;1999.90;999.90;;;;;;;16.04;100.00;102005.88;10399657;28;20049;-70
2023/09/26 08:25:26;;;;;;;1999.90;999.90;;;;;;;16.05;100.00;102002.28;10424202;22;20060;-70
2023/09/26 08:30:29;;;;;;;1999.90;999.90;;;;;;;15.98;100.00;101998.31;10416134;28;20049;-70
2023/09/26 08:35:32;;;;;;;1999.90;999.90;;;;;;;16.43;100.00;101992.94;10409685;28;20088;-70
2023/09/26 08:40:34;;;;;;;1999.90;999.90;;;;;;;17.24;98.54;101981.53;10415992;28;20518;-70
2023/09/26 08:45:36;;;;;;;1999.90;999.90;;;;;;;17.30;96.43;101974.97;10399134;28;20049;-70
2023/09/26 08:50:39;;;;;;;1999.90;999.90;;;;;;;17.28;96.10;101964.47;10415879;28;20045;-70
2023/09/26 08:55:42;;;;;;;1999.90;999.90;;;;;;;17.27;95.73;101965.44;10414807;28;20049;-70
2023/09/26 09:00:45;;;;;;;1999.90;999.90;;;;;;;19.04;90.49;101952.09;10413231;28;20481;-70
2023/09/26 09:05:47;;;;;;;1999.90;999.90;;;;;;;18.17;86.76;101947.78;10401077;28;20096;-71
2023/09/26 09:10:53;;;;;;;1999.90;999.90;;;;;;;18.76;86.50;101943.50;10415511;28;20136;-70
2023/09/26 09:16:20;;;;;;;1999.90;999.90;;;;;;;19.31;84.12;101939.38;10397493;28;20554;-70
2023/09/26 09:21:27;;;;;;;1999.90;999.90;;;;;;;20.27;81.07;101955.03;10398558;28;20110;-70
2023/09/26 09:26:32;;;;;;;1999.90;999.90;;;;;;;21.44;77.29;101953.41;10397705;28;20057;-70
2023/09/26 09:31:34;;;;;;;1999.90;999.90;;;;;;;22.78;72.23;101947.00;10389744;28;20056;-70
2023/09/26 09:36:38;;;;;;;1999.90;999.90;;;;;;;20.88;74.55;101957.19;10423745;28;20050;-71
2023/09/26 09:41:41;;;;;;;1999.90;999.90;;;;;;;22.27;74.01;101935.50;10422892;28;20045;-70
2023/09/26 09:46:43;;;;;;;1999.90;999.90;;;;;;;22.06;71.61;101933.78;10405770;28;20108;-71
2023/09/26 09:51:47;;;;;;;1999.90;999.90;;;;;;;21.98;71.75;101954.94;10423067;28;20053;-71
2023/09/26 09:56:52;;;;;;;1999.90;999.90;;;;;;;23.76;69.85;101944.16;10389299;28;20085;-71
2023/09/26 10:01:55;;;;;;;1999.90;999.90;;;;;;;22.57;68.02;101934.59;10388662;28;20518;-72
2023/09/26 10:06:58;;;;;;;1999.90;999.90;;;;;;;24.46;63.87;101925.75;10422751;28;20060;-77
2023/09/26 10:12:02;;;;;;;1999.90;999.90;;;;;;;23.77;64.93;101914.63;10404785;28;20041;-77
2023/09/26 10:17:05;;;;;;;1999.90;999.90;;;;;;;23.23;64.87;101908.16;10404592;28;20476;-77
2023/09/26 10:22:34;;;;;;;1999.90;999.90;;;;;;;24.18;64.11;101903.56;10421981;28;20125;-77
2023/09/26 10:27:42;;;;;;;1999.90;999.90;;;;;;;23.15;65.33;101903.56;10403764;28;20111;-77
2023/09/26 10:33:05;;;;;;;1999.90;999.90;;;;;;;22.80;68.95;101899.63;10406413;28;20379;-77
2023/09/26 10:38:16;;;;;;;1999.90;999.90;;;;;;;23.78;65.74;101899.41;10387374;28;20053;-77
2023/09/26 10:43:19;;;;;;;1999.90;999.90;;;;;;;24.18;67.31;101900.91;10404452;28;20045;-77
2023/09/26 10:48:24;;;;;;;1999.90;999.90;;;;;;;23.96;67.13;101910.19;10403966;28;20053;-77
2023/09/26 10:53:28;;;;;;;1999.90;999.90;;;;;;;23.37;64.91;101913.06;10420154;28;20053;-77
2023/09/26 10:58:34;;;;;;;1999.90;999.90;;;;;;;24.01;67.26;101895.38;10403089;28;20049;-77
2023/09/26 11:03:37;;;;;;;1999.90;999.90;;;;;;;23.19;66.95;101892.44;10402982;28;20076;-77
2023/09/26 11:08:39;;;;;;;1999.90;999.90;;;;;;;23.27;66.77;101889.03;10402119;28;20077;-77
2023/09/26 11:13:42;;;;;;;1999.90;999.90;;;;;;;22.98;72.08;101879.25;10420002;28;20049;-77
2023/09/26 11:18:45;;;;;;;1999.90;999.90;;;;;;;22.91;69.40;101911.97;10386425;28;20060;-77
2023/09/26 11:23:47;;;;;;;1999.90;999.90;;;;;;;23.12;68.81;101909.19;10419426;28;20103;-76
2023/09/26 11:28:50;;;;;;;1999.90;999.90;;;;;;;23.39;66.64;101905.75;10418916;28;20506;-77
2023/09/26 11:33:53;;;;;;;1999.90;999.90;;;;;;;23.49;65.68;101881.66;10401659;28;20045;-77
2023/09/26 11:38:55;;;;;;;1999.90;999.90;;;;;;;23.26;64.07;101889.19;10401593;28;20049;-77
2023/09/26 11:44:08;;;;;;;1999.90;999.90;;;;;;;23.07;68.26;101890.91;10400716;28;20487;-78
2023/09/26 11:49:12;;;;;;;1999.90;999.90;;;;;;;22.79;66.84;101881.94;10401263;28;20050;-77
2023/09/26 11:54:15;;;;;;;1999.90;999.90;;;;;;;22.48;71.65;101878.56;10417726;28;20158;-77
2023/09/26 11:59:17;;;;;;;1999.90;999.90;;;;;;;22.92;70.52;101870.97;10418363;28;20132;-78
2023/09/26 12:04:22;;;;;;;1999.90;999.90;;;;;;;22.45;70.01;101875.19;10418058;28;20075;-77
2023/09/26 12:09:24;;;;;;;1999.90;999.90;;;;;;;22.65;71.52;101885.03;10400416;28;20045;-77
2023/09/26 12:14:27;;;;;;;1999.90;999.90;;;;;;;23.06;68.48;101867.84;10383924;28;20048;-77
2023/09/26 12:19:29;;;;;;;1999.90;999.90;;;;;;;23.11;69.89;101859.41;10416926;28;20128;-77
2023/09/26 12:24:32;;;;;;;1999.90;999.90;;;;;;;22.74;67.78;101871.66;10399425;28;20099;-77
2023/09/26 12:29:35;;;;;;;1999.90;999.90;;;;;;;23.34;68.98;101868.75;10417134;28;20128;-77
2023/09/26 12:34:37;;;;;;;1999.90;999.90;;;;;;;23.15;67.51;101853.66;10417287;28;20477;-77
2023/09/26 12:39:39;;;;;;;1999.90;999.90;;;;;;;23.34;65.84;101855.41;10416113;28;20478;-77
2023/09/26 12:44:42;;;;;;;1999.90;999.90;;;;;;;23.17;66.26;101850.84;10415962;28;20057;-77
2023/09/26 12:49:48;;;;;;;1999.90;999.90;;;;;;;23.67;66.81;101852.31;10416171;28;20055;-77
2023/09/26 12:54:51;;;;;;;1999.90;999.90;;;;;;;24.34;64.30;101839.50;10398554;28;20056;-78
2023/09/26 12:59:55;;;;;;;1999.90;999.90;;;;;;;24.52;62.94;101842.16;10415472;28;20491;-77
2023/09/26 13:04:57;;;;;;;1999.90;999.90;;;;;;;24.75;57.86;101850.59;10398476;28;20124;-77
2023/09/26 13:10:00;;;;;;;1999.90;999.90;;;;;;;24.62;59.75;101848.31;10415709;28;20410;-78
2023/09/26 13:15:03;;;;;;;1999.90;999.90;;;;;;;23.64;64.52;101856.13;10415646;28;20059;-76
2023/09/26 13:20:10;;;;;;;1999.90;999.90;;;;;;;22.68;67.29;101847.38;10398134;28;20049;-76
2023/09/26 13:25:13;;;;;;;1999.90;999.90;;;;;;;22.18;72.51;101848.34;10381558;28;20060;-76
2023/09/26 13:30:16;;;;;;;1999.90;999.90;;;;;;;22.51;70.09;101847.13;10397238;28;20414;-76
2023/09/26 13:35:18;;;;;;;1999.90;999.90;;;;;;;21.86;75.22;101836.06;10414595;28;20459;-77
2023/09/26 13:40:21;;;;;;;1999.90;999.90;;;;;;;22.18;73.05;101835.84;10414586;28;20509;-77
2023/09/26 13:45:23;;;;;;;1999.90;999.90;;;;;;;22.14;76.31;101829.09;10415090;28;20045;-76
2023/09/26 13:50:25;;;;;;;1999.90;999.90;;;;;;;21.84;79.28;101828.22;10415046;28;20056;-77
2023/09/26 13:55:28;;;;;;;1999.90;999.90;;;;;;;21.15;81.95;101840.38;10414265;28;20045;-77
2023/09/26 14:00:32;;;;;;;1999.90;999.90;;;;;;;21.33;86.38;101835.31;10414846;28;20049;-77
2023/09/26 14:05:34;;;;;;;1999.90;999.90;;;;;;;21.82;90.19;101827.50;10414773;28;20133;-77
2023/09/26 14:10:37;;;;;;;1999.90;999.90;;;;;;;21.67;90.26;101831.50;10397222;28;20053;-77
2023/09/26 14:15:39;;;;;;;1999.90;999.90;;;;;;;21.41;94.97;101831.13;10401935;28;20052;-77
2023/09/26 14:20:42;;;;;;;1999.90;999.90;;;;;;;21.51;90.84;101824.88;10421588;28;20209;-77
2023/09/26 14:25:54;;;;;;;1999.90;999.90;;;;;;;21.34;87.38;101833.47;10404148;28;20409;-77
2023/09/26 14:30:56;;;;;;;1999.90;999.90;;;;;;;21.26;91.45;101835.97;10404276;28;20477;-77
2023/09/26 14:35:59;;;;;;;1999.90;999.90;;;;;;;21.50;92.26;101825.00;10421457;28;20141;-77
2023/09/26 14:41:01;;;;;;;1999.90;999.90;;;;;;;21.43;93.76;101830.00;10420754;28;20525;-77
2023/09/26 14:46:04;;;;;;;1999.90;999.90;;;;;;;21.54;96.58;101823.78;10421187;28;20069;-77
2023/09/26 14:51:06;;;;;;;1999.90;999.90;;;;;;;21.71;93.90;101825.78;10421036;28;20107;-77
2023/09/26 14:56:09;;;;;;;1999.90;999.90;;;;;;;21.33;99.08;101826.44;10420736;28;20080;-77
2023/09/26 15:01:11;;;;;;;1999.90;999.90;;;;;;;21.19;96.11;101821.50;10420538;28;20107;-77
2023/09/26 15:06:14;;;;;;;1999.90;999.90;;;;;;;21.37;96.89;101821.69;10420311;28;20045;-77
2023/09/26 15:11:16;;;;;;;1999.90;999.90;;;;;;;20.99;100.00;101826.69;10420284;28;20180;-69
2023/09/26 15:16:20;;;;;;;1999.90;999.90;;;;;;;20.81;100.00;101820.28;10419960;28;20051;-71
2023/09/26 15:21:24;;;;;;;1999.90;999.90;;;;;;;21.16;100.00;101827.91;10420386;28;20104;-68
2023/09/26 15:26:27;;;;;;;1999.90;999.90;;;;;;;21.05;100.00;101828.00;10417772;28;20053;-72
2023/09/26 15:31:29;;;;;;;1999.90;999.90;;;;;;;20.66;100.00;101815.31;10418864;28;20096;-69
2023/09/26 15:36:31;;;;;;;1999.90;999.90;;;;;;;20.70;100.00;101814.06;10418564;28;20136;-69
2023/09/26 15:41:34;;;;;;;1999.90;999.90;;;;;;;20.53;100.00;101814.63;10418430;28;20050;-68
2023/09/26 15:46:37;;;;;;;1999.90;999.90;;;;;;;20.47;100.00;101817.78;10401287;28;20136;-68
2023/09/26 15:51:40;;;;;;;1999.90;999.90;;;;;;;20.03;100.00;101808.00;10417937;28;20391;-68
2023/09/26 15:56:42;;;;;;;1999.90;999.90;;;;;;;20.17;100.00;101798.94;10418513;28;20057;-68
2023/09/26 16:01:45;;;;;;;1999.90;999.90;;;;;;;20.09;100.00;101789.88;10400726;28;20053;-68
2023/09/26 16:06:47;;;;;;;1999.90;999.90;;;;;;;19.82;100.00;101791.16;10418538;28;20092;-68
2023/09/26 16:11:51;;;;;;;1999.90;999.90;;;;;;;19.69;100.00;101788.63;10399731;28;20072;-67
2023/09/26 16:16:53;;;;;;;1999.90;999.90;;;;;;;19.45;100.00;101778.13;10400222;28;20068;-68
2023/09/26 16:21:56;;;;;;;1999.90;999.90;;;;;;;19.32;100.00;101778.28;10417488;28;20063;-72
2023/09/26 16:26:59;;;;;;;1999.90;999.90;;;;;;;19.47;100.00;101769.09;10415931;28;20068;-68
2023/09/26 16:32:01;;;;;;;1999.90;999.90;;;;;;;19.32;100.00;101767.66;10397794;28;20059;-73
2023/09/26 16:37:04;;;;;;;1999.90;999.90;;;;;;;19.07;100.00;101776.72;10414865;28;20060;-73
2023/09/26 16:42:06;;;;;;;1999.90;999.90;;;;;;;18.80;100.00;101787.63;10414493;28;20053;-73
2023/09/26 16:47:08;;;;;;;1999.90;999.90;;;;;;;18.48;100.00;101794.41;10397481;28;20077;-73
2023/09/26 16:52:11;;;;;;;1999.90;999.90;;;;;;;18.44;100.00;101800.03;10414779;28;20050;-73
2023/09/26 16:57:14;;;;;;;1999.90;999.90;;;;;;;18.45;100.00;101813.19;10414042;28;20418;-73
2023/09/26 17:02:19;;;;;;;1999.90;999.90;;;;;;;18.32;100.00;101804.47;10396515;28;20049;-73
2023/09/26 17:07:22;;;;;;;1999.90;999.90;;;;;;;18.24;100.00;101794.44;10414336;28;20045;-73
2023/09/26 17:12:24;;;;;;;1999.90;999.90;;;;;;;18.11;100.00;101783.91;10396094;28;20156;-73
2023/09/26 17:17:26;;;;;;;1999.90;999.90;;;;;;;17.76;100.00;101797.03;10396615;28;20081;-73
2023/09/26 17:22:29;;;;;;;1999.90;999.90;;;;;;;17.71;100.00;101796.53;10413381;28;20048;-73
2023/09/26 17:27:32;;;;;;;1999.90;999.90;;;;;;;17.34;100.00;101812.38;10358816;28;1102222;-73
2023/09/26 17:32:35;;;;;;;1999.90;999.90;;;;;;;17.34;100.00;101809.72;10398250;28;20053;-73
2023/09/26 17:37:38;;;;;;;1999.90;999.90;;;;;;;17.05;100.00;101813.44;10397382;28;20482;-73
2023/09/26 17:42:40;;;;;;;1999.90;999.90;;;;;;;17.07;100.00;101815.97;10397799;28;20050;-73
2023/09/26 17:47:43;;;;;;;1999.90;999.90;;;;;;;17.01;100.00;101824.31;10397889;28;20045;-68
2023/09/26 17:52:45;;;;;;;1999.90;999.90;;;;;;;16.95;100.00;101825.59;10422598;28;20057;-74
2023/09/26 17:57:48;;;;;;;1999.90;999.90;;;;;;;16.92;100.00;101841.66;10423168;28;20137;-73
2023/09/26 18:02:50;;;;;;;1999.90;999.90;;;;;;;16.71;100.00;101843.94;10389294;28;20050;-73
2023/09/26 18:07:53;;;;;;;1999.90;999.90;;;;;;;16.67;100.00;101842.44;10404612;28;20413;-73
2023/09/26 18:12:55;;;;;;;1999.90;999.90;;;;;;;16.50;100.00;101848.84;10422491;28;20075;-74
2023/09/26 18:17:58;;;;;;;1999.90;999.90;;;;;;;16.57;100.00;101858.06;10422292;28;20055;-74
2023/09/26 18:23:01;;;;;;;1999.90;999.90;;;;;;;16.41;100.00;101868.81;10422241;28;20049;-73
2023/09/26 18:28:03;;;;;;;1999.90;999.90;;;;;;;16.25;100.00;101874.22;10421457;28;20068;-74
2023/09/26 18:33:06;;;;;;;1999.90;999.90;;;;;;;16.20;100.00;101873.66;10422176;28;20132;-73
2023/09/26 18:38:09;;;;;;;1999.90;999.90;;;;;;;16.28;100.00;101883.75;10403455;28;20087;-73
2023/09/26 18:43:11;;;;;;;1999.90;999.90;;;;;;;16.19;100.00;101890.47;10421443;28;20042;-74
2023/09/26 18:48:15;;;;;;;1999.90;999.90;;;;;;;16.18;100.00;101885.28;10387330;28;20053;-73
2023/09/26 18:53:17;;;;;;;1999.90;999.90;;;;;;;16.05;100.00;101866.72;10403096;28;20073;-73
2023/09/26 18:58:20;;;;;;;1999.90;999.90;;;;;;;15.92;100.00;101887.75;10420674;28;20099;-73
2023/09/26 19:03:22;;;;;;;1999.90;999.90;;;;;;;15.80;100.00;101881.47;10386130;28;20176;-73
2023/09/26 19:08:25;;;;;;;1999.90;999.90;;;;;;;15.81;100.00;101892.88;10419764;28;20498;-73
2023/09/26 19:13:27;;;;;;;1999.90;999.90;;;;;;;15.68;100.00;101890.97;10420070;28;20129;-73
2023/09/26 19:18:30;;;;;;;1999.90;999.90;;;;;;;15.61;100.00;101901.03;10403000;28;20088;-73
2023/09/26 19:23:33;;;;;;;1999.90;999.90;;;;;;;15.56;100.00;101900.47;10419236;28;20414;-73
2023/09/26 19:28:35;;;;;;;1999.90;999.90;;;;;;;15.49;100.00;101904.44;10418910;28;20568;-72
2023/09/26 19:33:38;;;;;;;1999.90;999.90;;;;;;;15.58;100.00;101905.66;10418626;28;20466;-72
2023/09/26 19:38:40;;;;;;;1999.90;999.90;;;;;;;15.53;100.00;101911.25;10401046;28;20143;-73
2023/09/26 19:43:42;;;;;;;1999.90;999.90;;;;;;;15.51;100.00;101907.81;10418396;28;20049;-72
2023/09/26 19:48:45;;;;;;;1999.90;999.90;;;;;;;15.44;100.00;101905.66;10418869;28;20080;-72
2023/09/26 19:53:48;;;;;;;1999.90;999.90;;;;;;;15.39;100.00;101901.50;10417946;28;20475;-72
2023/09/26 19:58:50;;;;;;;1999.90;999.90;;;;;;;15.44;100.00;101885.41;10400936;28;20053;-73
2023/09/26 20:03:53;;;;;;;1999.90;999.90;;;;;;;15.37;100.00;101898.13;10417634;28;20410;-73
2023/09/26 20:08:55;;;;;;;1999.90;999.90;;;;;;;15.19;100.00;101902.69;10400536;28;20096;-72
2023/09/26 20:13:58;;;;;;;1999.90;999.90;;;;;;;15.26;100.00;101889.16;10417880;28;20061;-73
2023/09/26 20:19:01;;;;;;;1999.90;999.90;;;;;;;15.27;100.00;101894.34;10417625;28;20053;-72
2023/09/26 20:24:03;;;;;;;1999.90;999.90;;;;;;;15.28;100.00;101887.25;10416380;28;20585;-72
2023/09/26 20:29:06;;;;;;;1999.90;999.90;;;;;;;15.04;100.00;101890.41;10417249;28;20129;-73
2023/09/26 20:34:08;;;;;;;1999.90;999.90;;;;;;;15.04;100.00;101899.16;10398967;28;20071;-72
2023/09/26 20:39:16;;;;;;;1999.90;999.90;;;;;;;15.02;100.00;101879.94;10423796;22;20103;-72
2023/09/26 20:44:19;;;;;;;1999.90;999.90;;;;;;;14.92;100.00;101883.22;10382834;28;20042;-73
2023/09/26 20:49:22;;;;;;;1999.90;999.90;;;;;;;14.95;100.00;101875.16;10416587;28;20140;-73
2023/09/26 20:54:26;;;;;;;1999.90;999.90;;;;;;;14.88;100.00;101889.59;10416329;28;20129;-72
2023/09/26 20:59:29;;;;;;;1999.90;999.90;;;;;;;14.93;100.00;101884.91;10416744;28;20073;-72
2023/09/26 21:04:31;;;;;;;1999.90;999.90;;;;;;;14.76;100.00;101893.81;10398600;28;20045;-72
2023/09/26 21:09:34;;;;;;;1999.90;999.90;;;;;;;14.72;100.00;101890.50;10415471;28;20045;-72
2023/09/26 21:14:36;;;;;;;1999.90;999.90;;;;;;;14.64;100.00;101900.63;10415759;28;20080;-73
2023/09/26 21:19:39;;;;;;;1999.90;999.90;;;;;;;14.57;100.00;101922.97;10416295;28;20132;-73
2023/09/26 21:24:41;;;;;;;1999.90;999.90;;;;;;;14.57;100.00;101933.50;10414112;28;20136;-72
2023/09/26 21:29:43;;;;;;;1999.90;999.90;;;;;;;14.65;100.00;101915.53;10415528;28;20053;-72
2023/09/26 21:34:46;;;;;;;1999.90;999.90;;;;;;;14.55;100.00;101920.41;10397719;28;20087;-72
2023/09/26 21:39:48;;;;;;;1999.90;999.90;;;;;;;14.66;100.00;101915.44;10415257;28;20063;-65
2023/09/26 21:44:51;;;;;;;1999.90;999.90;;;;;;;14.46;100.00;101918.31;10414718;28;20569;-65